Time;durP1;ratioP1;P1;durP2;ratioP2;P2;SDS_P1;SDS_P2;PMS_P1;PMS_P2;Temp;Humidity;BMP_temperature;BMP_pressure;BME280_temperature;BME280_humidity;BME280_pressure;Samples;Min_cycle;Max_cycle;Signal;HPM_P1;HPM_P2
2023/08/02 00:01:32;;;;;;;0.20;0.20;;;16.40;99.90;;;;;;5048517;28;20040;-79
2023/08/02 00:03:59;;;;;;;0.20;0.20;;;16.40;99.90;;;;;;5052030;28;20546;-79
2023/08/02 00:06:27;;;;;;;0.13;0.13;;;16.40;99.90;;;;;;5049152;28;20037;-79
2023/08/02 00:08:53;;;;;;;0.10;0.10;;;16.40;99.90;;;;;;5047539;28;20056;-79
2023/08/02 00:11:18;;;;;;;0.17;0.17;;;16.40;99.90;;;;;;5052744;28;20488;-79
2023/08/02 00:13:44;;;;;;;0.20;0.20;;;16.40;99.90;;;;;;5052131;28;20473;-79
2023/08/02 00:16:10;;;;;;;0.10;0.10;;;16.40;99.90;;;;;;5052191;28;20057;-79
2023/08/02 00:18:36;;;;;;;0.10;0.10;;;16.40;99.90;;;;;;5051998;28;20076;-79
2023/08/02 00:21:02;;;;;;;0.10;0.10;;;16.40;99.90;;;;;;5051568;28;20089;-79
2023/08/02 00:23:28;;;;;;;0.20;0.20;;;16.40;99.90;;;;;;5050214;28;20067;-78
2023/08/02 00:25:53;;;;;;;0.20;0.20;;;16.40;99.90;;;;;;5050683;28;20056;-79
2023/08/02 00:28:19;;;;;;;0.10;0.10;;;16.40;99.90;;;;;;5051549;28;20656;-79
2023/08/02 00:30:46;;;;;;;0.10;0.10;;;16.30;99.90;;;;;;5052250;28;20041;-79
2023/08/02 00:33:12;;;;;;;0.10;0.10;;;16.30;99.90;;;;;;5049613;28;20037;-79
2023/08/02 00:35:50;;;;;;;0.17;0.17;;;16.40;99.90;;;;;;5051426;28;20036;-79
2023/08/02 00:38:16;;;;;;;0.20;0.20;;;16.40;99.90;;;;;;5050356;28;20044;-79
2023/08/02 00:40:42;;;;;;;0.10;0.10;;;16.30;99.90;;;;;;5053302;28;20044;-79
2023/08/02 00:43:07;;;;;;;0.13;0.13;;;16.30;99.90;;;;;;5047758;28;20040;-79
2023/08/02 00:45:33;;;;;;;0.10;0.10;;;16.30;99.90;;;;;;5051858;28;20041;-79
2023/08/02 00:48:00;;;;;;;0.20;0.20;;;16.30;99.90;;;;;;5051156;28;20496;-79
2023/08/02 00:50:30;;;;;;;0.20;0.20;;;16.30;99.90;;;;;;5052907;28;20045;-78
2023/08/02 00:52:56;;;;;;;0.10;0.10;;;;;;;;;;5050369;28;20099;-79
2023/08/02 00:55:22;;;;;;;0.20;0.20;;;16.30;99.90;;;;;;5051206;28;20051;-79
2023/08/02 00:57:49;;;;;;;0.15;0.15;;;16.30;99.90;;;;;;5050998;28;20033;-79
2023/08/02 01:00:14;;;;;;;0.10;0.10;;;16.30;99.90;;;;;;5054859;28;20110;-79
2023/08/02 01:02:40;;;;;;;0.20;0.20;;;16.30;99.90;;;;;;5072783;28;20068;-79
2023/08/02 01:05:06;;;;;;;0.10;0.10;;;16.30;99.90;;;;;;5053685;28;20097;-79
2023/08/02 01:07:45;;;;;;;0.15;0.15;;;16.30;99.90;;;;;;5053011;28;20131;-78
2023/08/02 01:10:13;;;;;;;0.20;0.20;;;16.20;99.90;;;;;;5050565;28;20032;-79
2023/08/02 01:12:44;;;;;;;0.15;0.15;;;16.20;99.90;;;;;;5059908;28;20060;-79
2023/08/02 01:15:13;;;;;;;0.20;0.20;;;16.30;99.90;;;;;;5065620;28;20591;-79
2023/08/02 01:17:39;;;;;;;0.10;0.10;;;16.30;99.90;;;;;;5069928;28;20553;-78
2023/08/02 01:20:06;;;;;;;0.13;0.13;;;16.30;99.90;;;;;;5067919;28;20049;-79
2023/08/02 01:22:32;;;;;;;0.20;0.20;;;16.30;99.90;;;;;;5067686;28;20055;-79
2023/08/02 01:25:01;;;;;;;0.20;0.20;;;16.30;99.90;;;;;;5060189;28;20044;-78
2023/08/02 01:27:50;;;;;;;0.20;0.20;;;16.30;99.90;;;;;;5072263;28;20036;-79
2023/08/02 01:30:19;;;;;;;0.10;0.10;;;16.30;99.90;;;;;;5072400;28;20041;-79
2023/08/02 01:32:45;;;;;;;0.20;0.20;;;16.30;99.90;;;;;;5053834;28;20101;-79
2023/08/02 01:35:12;;;;;;;0.20;0.20;;;16.30;99.90;;;;;;5071615;28;20037;-79
2023/08/02 01:37:39;;;;;;;0.10;0.10;;;16.30;99.90;;;;;;5052191;28;20221;-79
2023/08/02 01:40:05;;;;;;;0.10;0.10;;;16.20;99.90;;;;;;5052374;28;20083;-79
2023/08/02 01:42:32;;;;;;;0.20;0.20;;;16.20;99.90;;;;;;5053542;28;20468;-78
2023/08/02 01:44:57;;;;;;;0.10;0.10;;;16.30;99.90;;;;;;5070393;28;20381;-79
2023/08/02 01:47:23;;;;;;;0.20;0.20;;;16.20;99.90;;;;;;5070856;28;20052;-79
2023/08/02 01:49:49;;;;;;;0.20;0.20;;;16.30;99.90;;;;;;5052124;28;20041;-79
2023/08/02 01:52:15;;;;;;;0.20;0.20;;;16.20;99.90;;;;;;5052286;28;20045;-79
2023/08/02 01:54:41;;;;;;;0.20;0.20;;;16.20;99.90;;;;;;5052150;28;20170;-79
2023/08/02 01:57:06;;;;;;;0.10;0.10;;;16.20;99.90;;;;;;5053375;28;20098;-79
2023/08/02 01:59:32;;;;;;;0.20;0.20;;;16.20;99.90;;;;;;5067377;28;20514;-79
2023/08/02 02:01:57;;;;;;;0.10;0.10;;;16.20;99.90;;;;;;5050125;28;20041;-79
2023/08/02 02:04:23;;;;;;;0.20;0.20;;;16.20;99.90;;;;;;5055343;28;20067;-79
2023/08/02 02:06:49;;;;;;;0.10;0.10;;;16.20;99.90;;;;;;5048817;28;20059;-79
2023/08/02 02:09:15;;;;;;;0.20;0.20;;;16.20;99.90;;;;;;5046745;28;20044;-79
2023/08/02 02:11:41;;;;;;;0.20;0.20;;;16.20;99.90;;;;;;5052113;28;20041;-79
2023/08/02 02:14:06;;;;;;;0.10;0.10;;;16.20;99.90;;;;;;5065491;28;20043;-79
2023/08/02 02:16:32;;;;;;;0.10;0.10;;;16.20;99.90;;;;;;5070583;28;20533;-78
2023/08/02 02:18:58;;;;;;;0.20;0.20;;;16.20;99.90;;;;;;5051401;28;20400;-79
2023/08/02 02:21:23;;;;;;;0.20;0.20;;;16.20;99.90;;;;;;5049656;28;20110;-79
2023/08/02 02:23:49;;;;;;;0.17;0.17;;;16.20;99.90;;;;;;5069244;28;20052;-79
2023/08/02 02:26:15;;;;;;;0.20;0.20;;;16.20;99.90;;;;;;5048665;28;20127;-78
2023/08/02 02:28:40;;;;;;;0.10;0.10;;;16.20;99.90;;;;;;5069341;28;20048;-78
2023/08/02 02:31:06;;;;;;;0.10;0.10;;;16.10;99.90;;;;;;5053626;28;20438;-78
2023/08/02 02:33:32;;;;;;;0.10;0.10;;;16.20;99.90;;;;;;5070108;28;20056;-78
2023/08/02 02:35:57;;;;;;;0.20;0.20;;;16.20;99.90;;;;;;5050022;28;20068;-79
2023/08/02 02:38:23;;;;;;;0.20;0.20;;;16.10;99.90;;;;;;5067766;28;20043;-78
2023/08/02 02:40:49;;;;;;;0.10;0.10;;;16.10;99.90;;;;;;5069157;28;20071;-78
2023/08/02 02:43:14;;;;;;;0.20;0.20;;;16.10;99.90;;;;;;5067187;28;20051;-79
2023/08/02 02:45:40;;;;;;;0.10;0.10;;;16.10;99.90;;;;;;5049863;28;20049;-78
2023/08/02 02:48:06;;;;;;;0.20;0.20;;;16.20;99.90;;;;;;5046931;28;20044;-78
2023/08/02 02:50:31;;;;;;;0.20;0.20;;;16.10;99.90;;;;;;5059801;28;20120;-78
2023/08/02 02:55:33;;;;;;;0.20;0.20;;;16.20;99.90;;;;;;6021693;23;20056;-77
2023/08/02 02:57:58;;;;;;;0.20;0.20;;;16.30;99.90;;;;;;4970045;28;20059;-77
2023/08/02 03:00:24;;;;;;;0.10;0.10;;;16.30;99.90;;;;;;4970850;28;20039;-76
2023/08/02 03:02:50;;;;;;;0.20;0.20;;;16.20;99.90;;;;;;4969951;28;20153;-78
2023/08/02 03:05:16;;;;;;;0.20;0.20;;;16.20;99.90;;;;;;4953991;28;20050;-77
2023/08/02 03:07:41;;;;;;;0.10;0.10;;;16.20;99.90;;;;;;4951324;28;20050;-78
2023/08/02 03:10:07;;;;;;;0.20;0.20;;;16.20;99.90;;;;;;4966870;28;20035;-77
2023/08/02 03:12:33;;;;;;;0.20;0.20;;;16.20;99.90;;;;;;4969708;28;20046;-76
2023/08/02 03:14:58;;;;;;;0.20;0.20;;;16.20;99.90;;;;;;4953816;28;20042;-77
2023/08/02 03:17:24;;;;;;;0.10;0.10;;;16.20;99.90;;;;;;4952003;28;20047;-77
2023/08/02 03:19:50;;;;;;;0.10;0.10;;;16.20;99.90;;;;;;4954020;28;20170;-77
2023/08/02 03:22:15;;;;;;;0.10;0.10;;;16.20;99.90;;;;;;4971309;28;20043;-76
2023/08/02 03:24:41;;;;;;;0.20;0.20;;;16.20;99.90;;;;;;4968449;28;20046;-77
2023/08/02 03:27:07;;;;;;;0.20;0.20;;;16.20;99.90;;;;;;4952260;28;20034;-78
2023/08/02 03:29:32;;;;;;;0.10;0.10;;;16.10;99.90;;;;;;4952619;28;20051;-77
2023/08/02 03:31:59;;;;;;;0.20;0.20;;;16.20;99.90;;;;;;4970188;28;20074;-76
2023/08/02 03:34:24;;;;;;;0.10;0.10;;;16.10;99.90;;;;;;4951621;28;20097;-77
2023/08/02 03:36:50;;;;;;;0.17;0.17;;;16.10;99.90;;;;;;4958813;28;20043;-76
2023/08/02 03:39:16;;;;;;;0.20;0.20;;;16.10;99.90;;;;;;4942158;28;20038;-76
2023/08/02 03:41:41;;;;;;;0.17;0.17;;;16.10;99.90;;;;;;4965235;28;20042;-76
2023/08/02 03:44:07;;;;;;;0.10;0.10;;;16.20;99.90;;;;;;4971019;28;20042;-77
2023/08/02 03:46:33;;;;;;;0.20;0.20;;;16.20;99.90;;;;;;4953455;28;20101;-76
2023/08/02 03:48:58;;;;;;;0.05;0.05;;;16.10;99.90;;;;;;4970701;28;20125;-76
2023/08/02 03:51:26;;;;;;;0.20;0.20;;;16.20;99.90;;;;;;4955508;28;20046;-78
2023/08/02 03:53:51;;;;;;;0.20;0.20;;;16.20;99.90;;;;;;4945622;28;20051;-77
2023/08/02 03:56:17;;;;;;;0.20;0.20;;;16.20;99.90;;;;;;4963922;28;20491;-76
2023/08/02 03:58:43;;;;;;;0.20;0.20;;;16.20;99.90;;;;;;4951407;28;20077;-76
2023/08/02 04:01:08;;;;;;;0.20;0.20;;;16.20;99.90;;;;;;4959822;28;20062;-78
2023/08/02 04:03:34;;;;;;;0.10;0.10;;;16.10;99.90;;;;;;4960282;28;20426;-77
2023/08/02 04:06:00;;;;;;;0.20;0.20;;;16.10;99.90;;;;;;4983200;28;20426;-77
2023/08/02 04:08:26;;;;;;;0.20;0.20;;;16.10;99.90;;;;;;4951372;28;20039;-77
2023/08/02 04:10:51;;;;;;;0.10;0.10;;;16.10;99.90;;;;;;4952378;28;20047;-77
2023/08/02 04:13:17;;;;;;;0.20;0.20;;;16.00;99.90;;;;;;4952378;28;20039;-76
2023/08/02 04:15:43;;;;;;;0.10;0.10;;;16.10;99.90;;;;;;4969624;28;20097;-77
2023/08/02 04:18:08;;;;;;;0.10;0.10;;;16.10;99.90;;;;;;4952351;28;20046;-77
2023/08/02 04:20:38;;;;;;;0.13;0.13;;;16.10;99.90;;;;;;4969809;28;20035;-77
2023/08/02 04:23:04;;;;;;;0.17;0.17;;;16.10;99.90;;;;;;4952283;28;20082;-76
2023/08/02 04:25:29;;;;;;;0.10;0.10;;;16.10;99.90;;;;;;4952198;28;20075;-76
2023/08/02 04:27:55;;;;;;;0.10;0.10;;;16.00;99.90;;;;;;4967814;28;20054;-76
2023/08/02 04:30:21;;;;;;;0.10;0.10;;;16.00;99.90;;;;;;4953604;28;20055;-77
2023/08/02 04:32:47;;;;;;;0.10;0.10;;;16.00;99.90;;;;;;4950961;28;20057;-76
2023/08/02 04:35:12;;;;;;;0.10;0.10;;;16.00;99.90;;;;;;4951199;28;20129;-77
2023/08/02 04:37:38;;;;;;;0.20;0.20;;;15.90;99.90;;;;;;4952815;28;20557;-76
2023/08/02 04:40:04;;;;;;;0.10;0.10;;;15.90;99.90;;;;;;4968622;28;20042;-77
2023/08/02 04:42:30;;;;;;;0.20;0.20;;;16.00;99.90;;;;;;4951359;28;20050;-77
2023/08/02 04:44:56;;;;;;;0.13;0.13;;;15.90;99.90;;;;;;4953148;28;20076;-77
2023/08/02 04:47:21;;;;;;;0.10;0.10;;;15.90;99.90;;;;;;4955680;28;20054;-78
2023/08/02 04:49:47;;;;;;;0.20;0.20;;;15.90;99.90;;;;;;4955840;28;20047;-77
2023/08/02 04:52:12;;;;;;;0.10;0.10;;;15.90;99.90;;;;;;4973090;28;20078;-77
2023/08/02 04:54:38;;;;;;;0.20;0.20;;;15.90;99.90;;;;;;4966894;28;20434;-76
2023/08/02 04:57:04;;;;;;;0.10;0.10;;;15.90;99.90;;;;;;4946981;28;20051;-78
2023/08/02 04:59:30;;;;;;;0.20;0.20;;;15.90;99.90;;;;;;4943646;28;20113;-77
2023/08/02 05:01:55;;;;;;;0.10;0.10;;;15.90;99.90;;;;;;4951674;28;20035;-76
2023/08/02 05:04:21;;;;;;;0.10;0.10;;;15.90;99.90;;;;;;4944639;28;20383;-76
2023/08/02 05:06:46;;;;;;;0.10;0.10;;;15.90;99.90;;;;;;4964066;28;20122;-76
2023/08/02 05:09:12;;;;;;;0.10;0.10;;;15.80;99.90;;;;;;4954085;28;20043;-76
2023/08/02 05:11:40;;;;;;;0.20;0.20;;;15.90;99.90;;;;;;4971260;28;20162;-77
2023/08/02 05:14:06;;;;;;;0.17;0.17;;;15.90;99.90;;;;;;4969891;28;20384;-76
2023/08/02 05:16:31;;;;;;;0.20;0.20;;;15.90;99.90;;;;;;4967689;28;20034;-77
2023/08/02 05:18:57;;;;;;;0.17;0.17;;;15.80;99.90;;;;;;4955384;28;20046;-77
2023/08/02 05:21:25;;;;;;;0.10;0.10;;;15.80;99.90;;;;;;4954540;28;20062;-77
2023/08/02 05:23:51;;;;;;;0.10;0.10;;;15.90;99.90;;;;;;4946124;28;20066;-76
2023/08/02 05:26:17;;;;;;;0.10;0.10;;;15.80;99.90;;;;;;4955947;28;20078;-76
2023/08/02 05:28:43;;;;;;;0.20;0.20;;;15.80;99.90;;;;;;4950938;28;20047;-75
2023/08/02 05:31:13;;;;;;;0.20;0.20;;;15.80;99.90;;;;;;4952424;28;20046;-77
2023/08/02 05:33:40;;;;;;;0.20;0.20;;;15.80;99.90;;;;;;4950122;28;20105;-75
2023/08/02 05:36:06;;;;;;;0.10;0.10;;;15.80;99.90;;;;;;4954223;28;20058;-75
2023/08/02 05:38:36;;;;;;;0.20;0.20;;;15.80;99.90;;;;;;4952926;28;20030;-75
2023/08/02 05:41:03;;;;;;;0.20;0.20;;;15.80;99.90;;;;;;4953758;28;20153;-76
2023/08/02 05:43:29;;;;;;;0.20;0.20;;;15.90;99.90;;;;;;4961389;28;20098;-76
2023/08/02 05:45:55;;;;;;;0.15;0.15;;;15.90;99.90;;;;;;4947238;28;20034;-76
2023/08/02 05:48:21;;;;;;;0.20;0.20;;;15.80;99.90;;;;;;4953105;28;20050;-76
2023/08/02 05:50:47;;;;;;;0.17;0.17;;;15.90;99.90;;;;;;4970620;28;20050;-76
2023/08/02 05:53:12;;;;;;;0.20;0.20;;;15.90;99.90;;;;;;4952807;28;20490;-77
2023/08/02 05:55:38;;;;;;;0.20;0.20;;;15.90;99.90;;;;;;4960817;28;20450;-77
2023/08/02 05:58:04;;;;;;;0.20;0.20;;;15.90;99.90;;;;;;4970940;28;20070;-76
2023/08/02 06:00:30;;;;;;;0.10;0.10;;;16.00;99.90;;;;;;4951891;28;20065;-76
2023/08/02 06:03:03;;;;;;;0.20;0.20;;;16.00;99.90;;;;;;4953881;28;20054;-75
2023/08/02 06:05:29;;;;;;;0.10;0.10;;;16.00;99.90;;;;;;4970629;28;20043;-75
2023/08/02 06:07:55;;;;;;;0.10;0.10;;;16.00;99.90;;;;;;4964107;28;20423;-75
2023/08/02 06:10:20;;;;;;;0.15;0.15;;;16.00;99.90;;;;;;4958099;28;20057;-75
2023/08/02 06:12:47;;;;;;;0.20;0.20;;;16.10;99.90;;;;;;4950361;28;20051;-75
2023/08/02 06:15:12;;;;;;;0.20;0.20;;;16.10;99.90;;;;;;4950278;28;20050;-77
2023/08/02 06:17:38;;;;;;;0.20;0.20;;;16.10;99.90;;;;;;4968234;28;20605;-75
2023/08/02 06:20:04;;;;;;;0.10;0.10;;;16.10;99.90;;;;;;4947986;28;20062;-75
2023/08/02 06:22:31;;;;;;;0.20;0.20;;;16.20;99.90;;;;;;4947863;28;20138;-75
2023/08/02 06:24:57;;;;;;;0.20;0.20;;;16.20;99.90;;;;;;4969110;28;20661;-78
2023/08/02 06:27:24;;;;;;;0.20;0.20;;;16.20;99.90;;;;;;4948215;28;20046;-77
2023/08/02 06:29:50;;;;;;;0.20;0.20;;;16.20;99.90;;;;;;4969273;28;20617;-78
2023/08/02 06:32:16;;;;;;;0.10;0.10;;;16.30;99.90;;;;;;4959571;28;20089;-77
2023/08/02 06:34:42;;;;;;;0.17;0.17;;;16.30;99.90;;;;;;4970546;28;20039;-77
2023/08/02 06:37:07;;;;;;;0.20;0.20;;;16.40;99.90;;;;;;4955262;28;20045;-76
2023/08/02 06:39:33;;;;;;;0.10;0.10;;;16.30;99.90;;;;;;4969214;28;20099;-77
2023/08/02 06:41:59;;;;;;;0.20;0.20;;;16.50;99.90;;;;;;4947419;28;20454;-78
2023/08/02 06:44:24;;;;;;;0.10;0.10;;;16.50;99.90;;;;;;4950729;28;20078;-77
2023/08/02 06:46:50;;;;;;;0.20;0.20;;;16.50;99.90;;;;;;4970322;28;20039;-76
2023/08/02 06:49:16;;;;;;;0.20;0.20;;;16.60;99.90;;;;;;4953206;28;20050;-77
2023/08/02 06:51:42;;;;;;;0.20;0.20;;;16.50;99.90;;;;;;4954602;28;20050;-76
2023/08/02 06:54:07;;;;;;;1.65;0.20;;;16.60;99.90;;;;;;4954592;28;20492;-77
2023/08/02 06:56:33;;;;;;;0.10;0.10;;;16.70;99.90;;;;;;4941445;29;20058;-77
2023/08/02 06:58:59;;;;;;;0.10;0.10;;;16.70;99.90;;;;;;4947885;28;20055;-78
2023/08/02 07:01:24;;;;;;;0.20;0.20;;;16.70;99.90;;;;;;4954517;28;20058;-78
2023/08/02 07:03:50;;;;;;;0.20;0.20;;;16.70;99.90;;;;;;4967484;28;20074;-76
2023/08/02 07:06:20;;;;;;;0.10;0.10;;;16.60;99.90;;;;;;4958086;28;20049;-78
2023/08/02 07:08:47;;;;;;;0.20;0.20;;;16.60;99.90;;;;;;4951154;28;20084;-77
2023/08/02 07:11:13;;;;;;;0.20;0.20;;;16.60;99.90;;;;;;4960429;28;20039;-78
2023/08/02 07:13:44;;;;;;;0.20;0.20;;;16.60;99.90;;;;;;4970687;28;20054;-78
2023/08/02 07:16:10;;;;;;;0.10;0.10;;;16.60;99.90;;;;;;4952257;28;20100;-78
2023/08/02 07:18:35;;;;;;;0.20;0.20;;;16.60;99.90;;;;;;4970077;28;20117;-77
2023/08/02 07:21:05;;;;;;;0.20;0.20;;;16.60;99.90;;;;;;4953317;28;20482;-78
2023/08/02 07:23:31;;;;;;;0.10;0.10;;;16.60;99.90;;;;;;4952428;28;20039;-77
2023/08/02 07:25:57;;;;;;;0.20;0.20;;;16.70;99.90;;;;;;4960169;28;20402;-77
2023/08/02 07:28:22;;;;;;;0.15;0.15;;;16.70;99.90;;;;;;4949881;28;20046;-77
2023/08/02 07:30:48;;;;;;;0.20;0.20;;;16.80;99.90;;;;;;4951172;29;20354;-79
2023/08/02 07:33:14;;;;;;;0.20;0.20;;;16.80;99.90;;;;;;4966384;28;20046;-78
2023/08/02 07:35:39;;;;;;;0.10;0.10;;;16.80;99.90;;;;;;4943818;28;20034;-77
2023/08/02 07:38:05;;;;;;;0.10;0.10;;;16.80;99.90;;;;;;4954430;28;20445;-76
2023/08/02 07:40:31;;;;;;;0.20;0.20;;;16.70;99.90;;;;;;4951352;28;20124;-77
2023/08/02 07:42:57;;;;;;;0.20;0.20;;;16.70;99.90;;;;;;4951683;28;20054;-77
2023/08/02 07:45:22;;;;;;;0.20;0.20;;;16.70;99.90;;;;;;4951087;28;20057;-77
2023/08/02 07:47:48;;;;;;;0.20;0.20;;;16.80;99.90;;;;;;4968813;28;20101;-77
2023/08/02 07:50:14;;;;;;;0.20;0.20;;;16.70;99.90;;;;;;4948821;28;20051;-77
2023/08/02 07:52:40;;;;;;;0.15;0.15;;;16.70;99.90;;;;;;4940204;28;20454;-77
2023/08/02 07:55:06;;;;;;;0.10;0.10;;;16.70;99.90;;;;;;4965281;28;20039;-75
2023/08/02 07:57:33;;;;;;;0.20;0.20;;;16.70;99.90;;;;;;4958341;28;20058;-77
2023/08/02 07:59:58;;;;;;;0.20;0.20;;;16.70;99.90;;;;;;4963285;28;20047;-77
2023/08/02 08:02:27;;;;;;;0.20;0.20;;;16.70;99.90;;;;;;4949219;28;20412;-78
2023/08/02 08:04:54;;;;;;;0.20;0.20;;;16.70;99.90;;;;;;4974147;28;20039;-77
2023/08/02 08:07:20;;;;;;;0.10;0.10;;;16.70;99.90;;;;;;4959250;28;20442;-77
2023/08/02 08:09:45;;;;;;;0.13;0.13;;;16.70;99.90;;;;;;4941617;28;20101;-78
2023/08/02 08:12:11;;;;;;;0.13;0.13;;;16.70;99.90;;;;;;4961958;28;20031;-77
2023/08/02 08:14:37;;;;;;;0.20;0.20;;;16.80;99.90;;;;;;4947917;28;20039;-76
2023/08/02 08:17:03;;;;;;;0.20;0.20;;;16.80;99.90;;;;;;4956029;28;20141;-76
2023/08/02 08:19:31;;;;;;;0.20;0.20;;;16.80;99.90;;;;;;4949742;28;20061;-76
2023/08/02 08:21:57;;;;;;;0.20;0.20;;;16.80;99.90;;;;;;4965074;28;20071;-77
2023/08/02 08:24:23;;;;;;;0.10;0.10;;;16.80;99.90;;;;;;4948492;28;20195;-79
2023/08/02 08:26:50;;;;;;;0.20;0.20;;;16.80;99.90;;;;;;4952644;28;20053;-76
2023/08/02 08:29:17;;;;;;;0.20;0.20;;;16.80;99.90;;;;;;4944427;28;20050;-77
2023/08/02 08:31:42;;;;;;;0.10;0.10;;;16.80;99.90;;;;;;4949958;28;20043;-76
2023/08/02 08:34:08;;;;;;;0.13;0.13;;;16.70;99.90;;;;;;4955358;28;20517;-77
2023/08/02 08:36:34;;;;;;;0.20;0.20;;;16.80;99.90;;;;;;4953266;28;20042;-76
2023/08/02 08:39:03;;;;;;;0.10;0.10;;;16.80;99.90;;;;;;4976003;28;20043;-79
2023/08/02 08:41:29;;;;;;;0.20;0.20;;;16.70;99.90;;;;;;4941596;28;20035;-77
2023/08/02 08:43:55;;;;;;;0.10;0.10;;;16.80;99.90;;;;;;4955098;28;20059;-78
2023/08/02 08:46:21;;;;;;;0.20;0.20;;;16.80;99.90;;;;;;4950631;28;20051;-79
2023/08/02 08:48:48;;;;;;;0.20;0.20;;;16.70;99.90;;;;;;4969473;28;20061;-77
2023/08/02 08:51:17;;;;;;;0.20;0.20;;;16.70;99.90;;;;;;4973366;28;20039;-79
2023/08/02 08:53:44;;;;;;;0.20;0.20;;;16.70;99.90;;;;;;4953163;28;20051;-78
2023/08/02 08:56:10;;;;;;;0.10;0.10;;;16.80;99.90;;;;;;4946309;28;20122;-78
2023/08/02 08:58:37;;;;;;;0.10;0.10;;;16.70;99.90;;;;;;4968073;28;20105;-80
2023/08/02 09:01:05;;;;;;;0.20;0.20;;;16.70;99.90;;;;;;4971792;28;20505;-78
2023/08/02 09:03:32;;;;;;;0.20;0.20;;;16.70;99.90;;;;;;4967251;28;20118;-78
2023/08/02 09:06:03;;;;;;;0.20;0.20;;;16.60;99.90;;;;;;4955962;28;20486;-79
2023/08/02 09:08:39;;;;;;;0.10;0.10;;;16.60;99.90;;;;;;4954101;28;20046;-77
2023/08/02 09:11:05;;;;;;;0.10;0.10;;;16.60;99.90;;;;;;4958127;28;20097;-78
2023/08/02 09:13:31;;;;;;;0.20;0.20;;;16.50;99.90;;;;;;4978370;28;20058;-77
2023/08/02 09:16:09;;;;;;;0.20;0.20;;;16.50;99.90;;;;;;4971102;28;20042;-81
2023/08/02 09:18:40;;;;;;;0.20;0.20;;;16.40;99.90;;;;;;4955740;28;20069;-78
2023/08/02 09:21:07;;;;;;;0.20;0.20;;;16.50;99.90;;;;;;4957167;28;20075;-78
2023/08/02 09:23:33;;;;;;;0.20;0.20;;;16.50;99.90;;;;;;4962131;28;20049;-78
2023/08/02 09:26:14;;;;;;;0.20;0.20;;;16.30;99.90;;;;;;4954379;28;20043;-79
2023/08/02 09:28:40;;;;;;;0.20;0.20;;;16.50;99.90;;;;;;4952396;28;20455;-78
2023/08/02 09:31:16;;;;;;;0.20;0.20;;;16.40;99.90;;;;;;4971855;28;20047;-79
2023/08/02 09:33:56;;;;;;;0.20;0.20;;;16.40;99.90;;;;;;4953292;28;20121;-78
2023/08/02 09:36:33;;;;;;;0.20;0.20;;;16.50;99.90;;;;;;4949714;28;20035;-78
2023/08/02 09:39:01;;;;;;;0.20;0.20;;;16.40;99.90;;;;;;4957087;28;20466;-80
2023/08/02 09:41:28;;;;;;;0.20;0.20;;;16.50;99.90;;;;;;4970552;28;20039;-78
2023/08/02 09:43:55;;;;;;;0.20;0.20;;;16.60;99.90;;;;;;4957664;28;20479;-78
2023/08/02 09:46:28;;;;;;;0.15;0.15;;;16.20;99.90;;;;;;4955398;28;20039;-78
2023/08/02 09:48:58;;;;;;;0.20;0.20;;;16.00;99.90;;;;;;4964303;28;20046;-78
2023/08/02 09:51:40;;;;;;;0.20;0.20;;;16.40;99.90;;;;;;4970597;28;20074;-79
2023/08/02 09:54:10;;;;;;;0.20;0.20;;;15.90;99.90;;;;;;4972003;28;20054;-79
2023/08/02 09:56:38;;;;;;;0.20;0.20;;;16.30;99.90;;;;;;4960977;28;20865;-77
2023/08/02 09:59:05;;;;;;;0.20;0.20;;;15.70;99.90;;;;;;4958847;28;20074;-79
2023/08/02 10:01:32;;;;;;;0.20;0.20;;;15.90;99.90;;;;;;4970438;28;20034;-79
2023/08/02 10:04:01;;;;;;;0.20;0.20;;;16.50;99.90;;;;;;4980883;28;20050;-78
2023/08/02 10:06:49;;;;;;;0.20;0.20;;;16.30;99.90;;;;;;4956170;28;20491;-79
2023/08/02 12:38:32;;;;;;;0.20;0.20;;;16.40;99.90;;;;;;4833021;24;20065;-79
2023/08/02 12:41:18;;;;;;;0.13;0.13;;;17.10;99.90;;;;;;4816323;29;20066;-80
2023/08/02 12:43:44;;;;;;;0.20;0.20;;;17.40;99.90;;;;;;4816688;29;20526;-80
2023/08/02 12:46:09;;;;;;;0.15;0.15;;;17.30;99.90;;;;;;4817113;29;20058;-81
2023/08/02 12:48:35;;;;;;;0.20;0.20;;;17.50;99.90;;;;;;4815733;29;20054;-80
2023/08/02 12:51:01;;;;;;;0.10;0.10;;;17.60;99.90;;;;;;4820620;29;20042;-81
2023/08/02 12:53:26;;;;;;;0.20;0.20;;;17.30;99.90;;;;;;4816809;29;20042;-80
2023/08/02 12:55:52;;;;;;;0.10;0.10;;;17.20;99.90;;;;;;4817677;29;20396;-80
2023/08/02 12:58:18;;;;;;;0.20;0.20;;;17.00;99.90;;;;;;4810806;29;20362;-80
2023/08/02 13:00:44;;;;;;;0.20;0.20;;;17.20;99.90;;;;;;4808370;29;20391;-81
2023/08/02 13:03:10;;;;;;;0.20;0.20;;;17.30;99.90;;;;;;4810804;29;20066;-78
2023/08/02 13:05:36;;;;;;;0.20;0.20;;;17.80;99.90;;;;;;4806071;29;20428;-79
2023/08/02 13:08:02;;;;;;;0.20;0.20;;;17.80;99.90;;;;;;4815227;29;20045;-79
2023/08/02 13:10:28;;;;;;;0.20;0.20;;;17.70;99.90;;;;;;4823305;29;20054;-79
2023/08/02 13:12:54;;;;;;;0.20;0.20;;;17.90;99.90;;;;;;4814913;29;20050;-79
2023/08/02 13:15:19;;;;;;;0.20;0.20;;;18.80;99.90;;;;;;4812087;29;20094;-80
2023/08/02 13:17:47;;;;;;;0.20;0.20;;;18.30;99.90;;;;;;4818771;29;20491;-79
2023/08/02 13:20:14;;;;;;;0.20;0.20;;;18.80;99.90;;;;;;4824638;29;20375;-79
2023/08/02 13:22:45;;;;;;;0.20;0.20;;;18.80;99.90;;;;;;4820424;29;20467;-79
2023/08/02 13:25:18;;;;;;;0.20;0.20;;;19.80;99.90;;;;;;4820796;29;20156;-80
2023/08/02 13:27:44;;;;;;;0.10;0.10;;;19.20;99.90;;;;;;4818645;29;20069;-79
2023/08/02 13:30:10;;;;;;;0.20;0.20;;;19.70;99.90;;;;;;4819409;29;20043;-78
2023/08/02 13:32:36;;;;;;;0.20;0.20;;;19.40;99.90;;;;;;4808954;29;20487;-78
2023/08/02 13:35:07;;;;;;;0.20;0.20;;;20.10;99.90;;;;;;4820361;29;20041;-79
2023/08/02 13:37:34;;;;;;;0.20;0.20;;;19.50;99.90;;;;;;4819284;29;20073;-78
2023/08/02 13:40:00;;;;;;;0.20;0.20;;;19.50;99.90;;;;;;4826296;29;20082;-80
2023/08/02 13:42:27;;;;;;;0.20;0.20;;;20.10;99.90;;;;;;4821290;29;20058;-80
2023/08/02 13:44:55;;;;;;;0.20;0.20;;;19.50;99.90;;;;;;4821521;29;20459;-80
2023/08/02 13:47:21;;;;;;;0.20;0.20;;;20.00;99.90;;;;;;4821629;29;20077;-78
2023/08/02 13:49:52;;;;;;;0.20;0.20;;;19.60;99.90;;;;;;4820292;29;20046;-81
2023/08/02 13:52:21;;;;;;;0.20;0.20;;;20.00;99.90;;;;;;4823386;29;20086;-80
2023/08/02 13:54:47;;;;;;;0.10;0.10;;;19.80;99.90;;;;;;4818208;29;20043;-79
2023/08/02 13:57:19;;;;;;;0.20;0.20;;;20.00;99.90;;;;;;4807291;29;20046;-80
2023/08/02 14:00:11;;;;;;;0.20;0.20;;;20.00;99.90;;;;;;4827348;29;20054;-80
2023/08/02 14:02:38;;;;;;;0.22;0.22;;;19.90;99.90;;;;;;4804695;29;20071;-80
2023/08/02 14:05:44;;;;;;;0.20;0.20;;;19.90;99.90;;;;;;4816431;29;20050;-80
2023/08/02 14:08:33;;;;;;;0.10;0.10;;;20.10;99.90;;;;;;4809232;29;20431;-80
2023/08/02 14:10:59;;;;;;;0.20;0.20;;;19.90;99.90;;;;;;4806476;29;20058;-78
2023/08/02 14:13:25;;;;;;;0.20;0.20;;;20.20;99.90;;;;;;4810159;29;20050;-79
2023/08/02 14:16:12;;;;;;;0.20;0.20;;;20.30;99.90;;;;;;4818286;29;20046;-78
2023/08/02 14:18:38;;;;;;;0.20;0.20;;;20.10;99.90;;;;;;4828102;29;20462;-80
2023/08/02 14:21:13;;;;;;;0.20;0.20;;;20.20;99.90;;;;;;4823065;29;20137;-80
2023/08/02 14:23:39;;;;;;;0.20;0.20;;;20.30;99.90;;;;;;4818383;29;20046;-80
2023/08/02 14:26:05;;;;;;;0.20;0.20;;;20.40;99.90;;;;;;4809355;29;20066;-84
2023/08/02 14:28:37;;;;;;;0.20;0.20;;;20.10;99.90;;;;;;4809502;29;20058;-80
2023/08/02 14:31:45;;;;;;;0.20;0.20;;;20.10;99.90;;;;;;4813239;29;20099;-79
2023/08/02 14:34:25;;;;;;;0.20;0.20;;;20.30;99.90;;;;;;4813496;29;20058;-79
2023/08/02 14:36:57;;;;;;;0.20;0.20;;;20.30;99.90;;;;;;4813149;29;20054;-80
2023/08/02 14:39:43;;;;;;;0.20;0.20;;;20.50;99.90;;;;;;4809244;29;20415;-79
2023/08/02 14:42:09;;;;;;;0.20;0.20;;;20.70;99.90;;;;;;4809358;29;20141;-77
2023/08/02 14:44:35;;;;;;;0.20;0.20;;;20.90;99.90;;;;;;4811187;29;20039;-79
2023/08/02 14:47:02;;;;;;;0.20;0.20;;;21.00;99.90;;;;;;4812497;29;20045;-79
2023/08/02 14:49:27;;;;;;;0.20;0.20;;;21.30;99.90;;;;;;4797690;29;20049;-78
2023/08/02 14:51:54;;;;;;;0.20;0.20;;;21.30;99.90;;;;;;4811529;29;20046;-78
2023/08/02 14:54:20;;;;;;;0.30;0.30;;;21.30;99.90;;;;;;4809998;29;20503;-77
2023/08/02 14:56:52;;;;;;;0.20;0.20;;;21.50;99.90;;;;;;4795866;29;20050;-78
2023/08/02 14:59:18;;;;;;;0.20;0.20;;;21.50;99.90;;;;;;4814795;29;21188;-78
2023/08/02 15:01:47;;;;;;;0.20;0.20;;;21.60;99.90;;;;;;4816356;29;20050;-79
2023/08/02 15:04:13;;;;;;;0.20;0.20;;;21.90;99.90;;;;;;4801046;29;20078;-78
2023/08/02 15:06:39;;;;;;;0.20;0.20;;;22.20;99.90;;;;;;4807664;29;20090;-79
2023/08/02 15:09:05;;;;;;;0.20;0.20;;;22.40;99.90;;;;;;4811674;29;20045;-78
2023/08/02 15:11:30;;;;;;;0.20;0.20;;;22.90;99.90;;;;;;4808680;29;20526;-78
2023/08/02 15:13:56;;;;;;;0.20;0.20;;;23.80;99.90;;;;;;4811982;29;20103;-77
2023/08/02 15:16:22;;;;;;;0.20;0.20;;;24.50;99.90;;;;;;4813611;29;20042;-78
2023/08/02 15:18:49;;;;;;;0.20;0.20;;;;;;;;;;4799007;29;20082;-78
2023/08/02 15:21:14;;;;;;;0.30;0.30;;;26.50;99.90;;;;;;4808960;29;20050;-78